Time;durP1;ratioP1;P1;durP2;ratioP2;P2;SDS_P1;SDS_P2;PMS_P1;PMS_P2;Temp;Humidity;BMP_temperature;BMP_pressure;BME280_temperature;BME280_humidity;BME280_pressure;Samples;Min_cycle;Max_cycle;Signal;HPM_P1;HPM_P2
2024/01/30 00:01:41;;;;;;;43.13;35.08;;;6.10;99.90;;;;;;5047738;28;20492;-89
2024/01/30 00:04:07;;;;;;;42.08;35.30;;;6.10;99.90;;;;;;5032844;28;20414;-90
2024/01/30 00:06:32;;;;;;;42.17;35.73;;;6.10;99.90;;;;;;5031449;28;20804;-90
2024/01/30 00:08:58;;;;;;;44.47;36.13;;;6.10;99.90;;;;;;5032204;28;20489;-91
2024/01/30 00:11:28;;;;;;;41.63;36.65;;;6.50;99.90;;;;;;5032535;28;20580;-90
2024/01/30 00:13:54;;;;;;;44.55;37.55;;;6.50;99.90;;;;;;5048145;28;20445;-91
2024/01/30 00:16:24;;;;;;;42.10;35.92;;;6.10;99.90;;;;;;5032595;28;20484;-92
2024/01/30 00:18:53;;;;;;;44.70;37.38;;;6.00;99.90;;;;;;5030293;28;21532;-91
2024/01/30 00:21:19;;;;;;;43.95;36.65;;;6.00;99.90;;;;;;5032547;28;20409;-91
2024/01/30 00:23:45;;;;;;;43.50;36.28;;;6.00;99.90;;;;;;5031679;28;20453;-89
2024/01/30 00:26:11;;;;;;;42.95;35.70;;;6.30;99.90;;;;;;5041653;28;21008;-90
2024/01/30 00:28:37;;;;;;;44.22;36.50;;;6.00;99.90;;;;;;5051645;28;20399;-90
2024/01/30 00:31:04;;;;;;;48.50;38.70;;;6.00;99.90;;;;;;5067527;28;20457;-91
2024/01/30 00:33:29;;;;;;;43.92;37.83;;;6.00;99.90;;;;;;5051955;28;20443;-90
2024/01/30 00:35:55;;;;;;;41.90;35.83;;;6.00;99.90;;;;;;5050895;28;20487;-90
2024/01/30 00:38:21;;;;;;;47.70;38.70;;;6.00;99.90;;;;;;5051783;28;20426;-91
2024/01/30 00:40:46;;;;;;;42.20;36.83;;;6.00;99.90;;;;;;5050157;28;20466;-90
2024/01/30 00:43:12;;;;;;;48.40;39.03;;;6.50;99.90;;;;;;5051649;28;20422;-90
2024/01/30 00:45:38;;;;;;;47.08;37.10;;;5.90;99.90;;;;;;5038127;28;20524;-91
2024/01/30 00:48:04;;;;;;;45.40;37.50;;;5.90;99.90;;;;;;5031281;28;20420;-90
2024/01/30 00:50:29;;;;;;;44.83;36.33;;;6.00;99.90;;;;;;5031599;28;20401;-91
2024/01/30 00:52:55;;;;;;;50.00;40.00;;;5.90;99.90;;;;;;5047632;28;20502;-90
2024/01/30 00:55:21;;;;;;;48.78;38.88;;;5.90;99.90;;;;;;5048275;28;20437;-90
2024/01/30 00:57:47;;;;;;;48.70;39.73;;;6.10;99.90;;;;;;5016667;28;20769;-91
2024/01/30 01:00:16;;;;;;;51.40;39.60;;;6.00;99.90;;;;;;5012233;28;20419;-91
2024/01/30 01:02:42;;;;;;;49.92;39.40;;;6.00;99.90;;;;;;5014889;28;20409;-90
2024/01/30 01:05:08;;;;;;;47.50;38.20;;;6.30;99.90;;;;;;5030909;28;20477;-89
2024/01/30 01:07:34;;;;;;;53.40;40.53;;;6.00;99.90;;;;;;5031260;28;20417;-91
2024/01/30 01:09:59;;;;;;;49.70;38.95;;;6.00;99.90;;;;;;5030161;28;20420;-90
2024/01/30 01:12:25;;;;;;;45.80;37.57;;;6.00;99.90;;;;;;5031294;28;20412;-90
2024/01/30 01:14:51;;;;;;;53.43;40.10;;;6.00;99.90;;;;;;5046595;28;20509;-90
2024/01/30 01:17:18;;;;;;;46.95;38.83;;;6.00;99.90;;;;;;5031323;28;20406;-91
2024/01/30 01:19:44;;;;;;;50.65;39.65;;;6.00;99.90;;;;;;5030036;28;20448;-91
2024/01/30 01:22:09;;;;;;;47.92;39.60;;;6.00;99.90;;;;;;5031516;28;20413;-91
2024/01/30 01:24:35;;;;;;;50.87;39.80;;;6.00;99.90;;;;;;5019435;28;20418;-90
2024/01/30 01:27:01;;;;;;;52.60;39.45;;;6.00;99.90;;;;;;5010931;28;20427;-92
2024/01/30 01:29:28;;;;;;;53.38;40.75;;;6.00;99.90;;;;;;5011383;28;20918;-90
2024/01/30 01:31:57;;;;;;;47.28;38.97;;;6.20;99.90;;;;;;5009908;28;20417;-91
2024/01/30 01:34:23;;;;;;;53.00;40.65;;;6.00;99.90;;;;;;5011636;28;20415;-90
2024/01/30 01:36:50;;;;;;;48.72;38.78;;;5.90;99.90;;;;;;5025703;28;20422;-89
2024/01/30 01:39:16;;;;;;;51.95;39.63;;;6.30;99.90;;;;;;5011541;28;20430;-90
2024/01/30 01:41:41;;;;;;;54.75;40.63;;;6.20;99.90;;;;;;5009954;28;20443;-90
2024/01/30 01:44:08;;;;;;;51.58;39.85;;;6.30;99.90;;;;;;5026643;28;20431;-90
2024/01/30 01:46:34;;;;;;;46.77;37.63;;;6.00;99.90;;;;;;5010698;28;21044;-90
2024/01/30 01:49:03;;;;;;;51.63;39.55;;;6.00;99.90;;;;;;5026456;28;20419;-89
2024/01/30 01:51:31;;;;;;;53.65;39.42;;;6.10;99.90;;;;;;5027436;28;20446;-90
2024/01/30 01:53:59;;;;;;;54.03;41.10;;;6.20;99.90;;;;;;5009207;28;20465;-90
2024/01/30 01:56:25;;;;;;;50.22;38.40;;;6.00;99.90;;;;;;5010905;28;20410;-91
2024/01/30 01:58:54;;;;;;;47.13;37.53;;;6.00;99.90;;;;;;5010000;28;20423;-91
2024/01/30 02:01:20;;;;;;;48.92;37.65;;;6.00;99.90;;;;;;5010803;28;20412;-91
2024/01/30 02:03:46;;;;;;;50.45;37.72;;;6.00;99.90;;;;;;5010746;28;20450;-91
2024/01/30 02:06:14;;;;;;;61.33;41.23;;;6.00;99.90;;;;;;5009410;28;20446;-90
2024/01/30 02:08:40;;;;;;;47.57;37.90;;;6.00;99.90;;;;;;5010995;28;20411;-91
2024/01/30 02:11:06;;;;;;;47.67;37.43;;;6.10;99.90;;;;;;5026051;28;20548;-90
2024/01/30 02:13:31;;;;;;;45.50;36.20;;;6.10;99.90;;;;;;5027067;28;20504;-91
2024/01/30 02:15:57;;;;;;;51.10;38.92;;;6.40;99.90;;;;;;5029686;28;20421;-90
2024/01/30 02:18:23;;;;;;;45.70;37.37;;;6.50;99.90;;;;;;5030363;28;20413;-92
2024/01/30 02:20:48;;;;;;;46.07;37.50;;;6.20;99.90;;;;;;5030037;28;20405;-90
2024/01/30 02:23:16;;;;;;;46.33;37.17;;;6.30;99.90;;;;;;5029622;28;20507;-90
2024/01/30 02:25:45;;;;;;;45.15;36.28;;;6.20;99.90;;;;;;5030169;28;20433;-90
2024/01/30 02:28:12;;;;;;;43.05;36.20;;;6.20;99.90;;;;;;5029163;28;20418;-91
2024/01/30 02:30:39;;;;;;;44.22;36.30;;;6.20;99.90;;;;;;5030381;28;20769;-91
2024/01/30 02:33:04;;;;;;;46.57;36.63;;;6.00;99.90;;;;;;5029527;28;20409;-91
2024/01/30 02:35:30;;;;;;;47.23;37.30;;;6.20;99.90;;;;;;5030417;28;20501;-92
2024/01/30 02:37:56;;;;;;;41.97;35.05;;;6.80;99.90;;;;;;5029476;28;20424;-91
2024/01/30 02:40:22;;;;;;;48.15;36.22;;;6.70;99.90;;;;;;5029689;28;20413;-91
2024/01/30 02:42:47;;;;;;;45.07;35.97;;;6.30;99.90;;;;;;5031947;28;20408;-91
2024/01/30 02:45:13;;;;;;;51.77;40.10;;;6.40;99.90;;;;;;5033175;28;20635;-91
2024/01/30 02:47:39;;;;;;;43.50;35.33;;;6.40;99.90;;;;;;5034201;28;20467;-90
2024/01/30 02:50:05;;;;;;;44.03;35.13;;;6.50;99.90;;;;;;5032970;28;20448;-91
2024/01/30 02:52:31;;;;;;;43.93;35.90;;;6.50;99.90;;;;;;5033854;28;20420;-91
2024/01/30 02:54:57;;;;;;;45.70;35.30;;;6.40;99.90;;;;;;5033029;28;20417;-90
2024/01/30 02:57:24;;;;;;;42.88;33.90;;;6.50;99.90;;;;;;5033305;28;20497;-91
2024/01/30 02:59:49;;;;;;;45.03;35.45;;;6.50;99.90;;;;;;5034101;28;20781;-90
2024/01/30 03:02:15;;;;;;;42.75;34.10;;;6.50;99.90;;;;;;5049223;28;20401;-90
2024/01/30 03:04:41;;;;;;;42.47;34.40;;;6.50;99.90;;;;;;5034125;28;20872;-92
2024/01/30 03:07:07;;;;;;;42.78;34.50;;;6.70;99.90;;;;;;5048740;28;20426;-90
2024/01/30 03:09:33;;;;;;;44.03;33.90;;;6.50;99.90;;;;;;5050368;28;20896;-91
2024/01/30 03:11:58;;;;;;;40.77;32.53;;;6.50;99.90;;;;;;5032265;28;20482;-92
2024/01/30 03:14:24;;;;;;;37.95;33.03;;;6.40;99.90;;;;;;5033616;28;20397;-91
2024/01/30 03:16:50;;;;;;;39.60;33.40;;;6.40;99.90;;;;;;5032891;28;20410;-91
2024/01/30 03:19:15;;;;;;;44.37;34.80;;;6.40;99.90;;;;;;5022162;28;20434;-91
2024/01/30 03:21:41;;;;;;;40.70;34.00;;;7.00;99.90;;;;;;5013314;28;21107;-91
2024/01/30 03:24:07;;;;;;;44.75;35.40;;;6.70;99.90;;;;;;5012738;28;20411;-90
2024/01/30 03:26:32;;;;;;;42.43;34.43;;;6.40;99.90;;;;;;5013780;28;20430;-91
2024/01/30 03:28:58;;;;;;;43.20;33.87;;;6.60;99.90;;;;;;5028764;28;20764;-91
2024/01/30 03:31:24;;;;;;;42.30;34.95;;;6.40;99.90;;;;;;5033149;28;20416;-92
2024/01/30 03:33:49;;;;;;;41.43;34.10;;;6.60;99.90;;;;;;5025589;28;20399;-91
2024/01/30 03:36:16;;;;;;;41.33;34.00;;;6.40;99.90;;;;;;5028987;28;20503;-90
2024/01/30 03:38:42;;;;;;;39.88;34.45;;;6.40;99.90;;;;;;5012689;28;20407;-90
2024/01/30 03:41:09;;;;;;;42.60;34.38;;;6.30;99.90;;;;;;5012728;28;20743;-91
2024/01/30 03:43:35;;;;;;;41.00;33.97;;;6.30;99.90;;;;;;5013219;28;20813;-92
2024/01/30 03:46:01;;;;;;;42.38;34.72;;;6.40;99.90;;;;;;5011783;28;20522;-90
2024/01/30 03:48:27;;;;;;;43.53;34.35;;;6.30;99.90;;;;;;5013855;28;20400;-91
2024/01/30 03:50:53;;;;;;;43.57;35.30;;;6.30;99.90;;;;;;5011774;28;20869;-92
2024/01/30 03:53:18;;;;;;;39.57;32.50;;;6.30;99.90;;;;;;5019070;28;21930;-91
2024/01/30 03:55:44;;;;;;;43.47;34.90;;;6.40;99.90;;;;;;5021097;28;20428;-89
2024/01/30 03:58:10;;;;;;;41.77;34.50;;;6.40;99.90;;;;;;5031848;28;20406;-90
2024/01/30 04:00:35;;;;;;;41.30;34.07;;;6.30;99.90;;;;;;5032725;28;20409;-90
2024/01/30 04:03:01;;;;;;;41.00;33.85;;;6.20;99.90;;;;;;5031438;28;20400;-90
2024/01/30 04:05:27;;;;;;;39.90;32.93;;;6.90;99.90;;;;;;5032488;28;20417;-91
2024/01/30 04:07:52;;;;;;;38.13;32.90;;;7.00;99.90;;;;;;5030773;28;20409;-91
2024/01/30 04:10:18;;;;;;;37.70;32.72;;;6.40;99.90;;;;;;5032598;28;20464;-92
2024/01/30 04:12:44;;;;;;;38.22;32.60;;;6.50;99.90;;;;;;5031567;28;20503;-91
2024/01/30 04:15:09;;;;;;;39.37;32.47;;;6.60;99.90;;;;;;5031751;28;21261;-91
2024/01/30 04:17:35;;;;;;;41.73;32.37;;;6.50;99.90;;;;;;5048587;28;20401;-90
2024/01/30 04:20:01;;;;;;;39.03;32.83;;;6.50;99.90;;;;;;5031744;28;20757;-93
2024/01/30 04:22:26;;;;;;;39.92;33.55;;;6.60;99.90;;;;;;5048860;28;20935;-91
2024/01/30 04:24:52;;;;;;;37.93;31.67;;;7.40;99.90;;;;;;5030837;28;20488;-91
2024/01/30 04:27:18;;;;;;;48.77;32.00;;;6.90;99.90;;;;;;5032307;28;20437;-91
2024/01/30 04:29:43;;;;;;;36.33;31.65;;;6.60;99.90;;;;;;5030770;28;20908;-90
2024/01/30 04:32:10;;;;;;;35.60;31.02;;;6.90;99.90;;;;;;5032467;28;20409;-90
2024/01/30 04:34:36;;;;;;;34.90;30.70;;;6.70;99.90;;;;;;5031554;28;20492;-90
2024/01/30 04:37:02;;;;;;;35.63;30.38;;;7.00;99.90;;;;;;5030966;28;20480;-89
2024/01/30 04:39:28;;;;;;;35.33;29.75;;;6.70;99.90;;;;;;5032041;28;20444;-91
2024/01/30 04:41:54;;;;;;;33.30;29.57;;;6.80;99.90;;;;;;5047438;28;20492;-91
2024/01/30 04:44:19;;;;;;;34.20;29.40;;;6.80;99.90;;;;;;5048594;28;20447;-90
2024/01/30 04:46:45;;;;;;;34.88;28.20;;;6.80;99.90;;;;;;5030338;28;21189;-88
2024/01/30 04:49:11;;;;;;;33.23;28.40;;;7.00;99.90;;;;;;5032013;28;20808;-90
2024/01/30 04:51:36;;;;;;;32.10;28.50;;;7.10;99.90;;;;;;5030752;28;20410;-92
2024/01/30 04:54:03;;;;;;;32.78;28.13;;;6.90;99.90;;;;;;5044917;28;20413;-91
2024/01/30 04:56:30;;;;;;;30.73;26.87;;;6.90;99.90;;;;;;5031312;28;20509;-92
2024/01/30 04:58:56;;;;;;;31.38;27.98;;;7.00;99.90;;;;;;5029784;28;20405;-91
2024/01/30 05:01:22;;;;;;;29.73;26.63;;;7.30;99.90;;;;;;5031298;28;20494;-91
2024/01/30 05:03:47;;;;;;;30.13;26.73;;;7.00;99.90;;;;;;5029831;28;20413;-91
2024/01/30 05:06:23;;;;;;;28.95;25.80;;;7.10;99.90;;;;;;5030719;28;21011;-89
2024/01/30 05:08:49;;;;;;;30.55;26.17;;;7.10;99.90;;;;;;5030228;28;20420;-92
2024/01/30 05:11:14;;;;;;;28.37;25.17;;;7.10;99.90;;;;;;5030947;28;20414;-92
2024/01/30 05:13:40;;;;;;;28.38;25.35;;;7.20;99.90;;;;;;5030520;28;20464;-90
2024/01/30 05:16:06;;;;;;;30.63;26.35;;;7.10;99.90;;;;;;5030647;28;20458;-91
2024/01/30 05:18:32;;;;;;;28.88;25.38;;;7.10;99.90;;;;;;5031016;28;20459;-90
2024/01/30 05:20:58;;;;;;;28.10;25.10;;;7.20;99.90;;;;;;5029522;28;20425;-91
2024/01/30 05:23:23;;;;;;;26.92;24.00;;;7.10;99.90;;;;;;5031084;28;20413;-89
2024/01/30 05:25:49;;;;;;;27.37;23.73;;;7.20;99.90;;;;;;5030296;28;20460;-91
2024/01/30 05:28:15;;;;;;;27.42;24.38;;;7.20;99.90;;;;;;5031106;28;20449;-91
2024/01/30 05:30:41;;;;;;;27.15;24.15;;;7.20;99.90;;;;;;5030571;28;20867;-89
2024/01/30 05:33:06;;;;;;;28.20;23.58;;;7.50;99.90;;;;;;5030337;28;20977;-91
2024/01/30 05:35:32;;;;;;;25.33;22.63;;;7.20;99.90;;;;;;5030421;28;20455;-92
2024/01/30 05:37:58;;;;;;;24.05;21.42;;;7.50;99.90;;;;;;5029988;28;20409;-92
2024/01/30 05:40:23;;;;;;;25.88;23.08;;;7.20;99.90;;;;;;5031004;28;20413;-90
2024/01/30 05:42:49;;;;;;;28.60;24.13;;;7.50;99.90;;;;;;5028862;28;20421;-91
2024/01/30 05:45:15;;;;;;;27.10;23.08;;;7.70;99.90;;;;;;5031468;28;20417;-91
2024/01/30 05:47:40;;;;;;;25.75;22.30;;;7.30;99.90;;;;;;5046075;28;20430;-90
2024/01/30 05:50:07;;;;;;;23.20;20.23;;;7.30;99.90;;;;;;5030298;28;20833;-90
2024/01/30 05:52:32;;;;;;;23.25;20.85;;;7.30;99.90;;;;;;5028782;28;20403;-92
2024/01/30 05:54:58;;;;;;;23.53;20.50;;;7.30;99.90;;;;;;5033364;28;20527;-89
2024/01/30 05:57:24;;;;;;;24.42;19.98;;;7.60;99.90;;;;;;5030779;28;20409;-92
2024/01/30 05:59:51;;;;;;;22.70;20.15;;;8.10;99.90;;;;;;5029107;28;20967;-91
2024/01/30 06:02:17;;;;;;;23.23;20.27;;;7.60;99.90;;;;;;5030705;28;20467;-91
2024/01/30 06:04:44;;;;;;;23.33;19.97;;;7.80;99.90;;;;;;5028794;28;20409;-91
2024/01/30 06:07:10;;;;;;;23.02;19.90;;;7.50;99.90;;;;;;5030248;28;20528;-91
2024/01/30 06:09:36;;;;;;;22.88;19.63;;;7.20;99.90;;;;;;5046535;28;20485;-92
2024/01/30 06:12:01;;;;;;;21.52;19.23;;;7.80;99.90;;;;;;5016428;28;20525;-91
2024/01/30 06:14:27;;;;;;;20.73;18.53;;;7.90;99.90;;;;;;5011483;28;20384;-91
2024/01/30 06:16:53;;;;;;;21.53;19.27;;;7.80;99.90;;;;;;5009841;28;20612;-93
2024/01/30 06:19:18;;;;;;;21.27;19.00;;;7.50;99.90;;;;;;5014715;28;20568;-92
2024/01/30 06:21:45;;;;;;;22.55;18.40;;;7.90;99.90;;;;;;5012769;28;20411;-90
2024/01/30 06:24:10;;;;;;;21.50;18.98;;;8.00;99.90;;;;;;5015080;28;20422;-92
2024/01/30 06:26:36;;;;;;;21.38;18.92;;;7.80;99.90;;;;;;5012378;28;20438;-92
2024/01/30 06:29:02;;;;;;;22.67;20.03;;;7.90;99.90;;;;;;5030716;28;20474;-92
2024/01/30 06:31:27;;;;;;;23.13;19.13;;;8.10;99.90;;;;;;5030801;28;20410;-93
2024/01/30 06:33:53;;;;;;;20.88;18.33;;;7.70;99.90;;;;;;5032924;28;20861;-91
2024/01/30 06:36:19;;;;;;;20.33;18.13;;;8.10;99.90;;;;;;5034823;28;20440;-92
2024/01/30 06:38:44;;;;;;;20.63;18.47;;;7.90;99.90;;;;;;5023465;28;20403;-92
2024/01/30 06:41:10;;;;;;;21.98;19.13;;;8.10;99.90;;;;;;5014621;28;20415;-92
2024/01/30 06:43:36;;;;;;;21.27;18.40;;;8.00;99.90;;;;;;5012818;28;20818;-91
2024/01/30 06:46:01;;;;;;;21.23;18.53;;;8.00;99.90;;;;;;5014215;28;20457;-92
2024/01/30 06:48:27;;;;;;;19.88;17.50;;;8.00;99.90;;;;;;5013711;28;20573;-91
2024/01/30 06:50:54;;;;;;;20.95;17.38;;;8.10;99.90;;;;;;5013950;28;20407;-94
2024/01/30 06:53:20;;;;;;;19.90;17.80;;;8.10;99.90;;;;;;5013747;28;20449;-91
2024/01/30 06:55:46;;;;;;;20.60;17.50;;;8.10;99.90;;;;;;5013284;28;20422;-94
2024/01/30 06:58:12;;;;;;;19.58;17.48;;;8.40;99.90;;;;;;5013913;28;20902;-90
2024/01/30 07:00:38;;;;;;;21.02;17.52;;;8.40;99.90;;;;;;5012698;28;20425;-91
2024/01/30 07:03:04;;;;;;;20.67;17.63;;;8.20;99.90;;;;;;5014031;28;20411;-92
2024/01/30 07:05:29;;;;;;;19.77;17.27;;;8.20;99.90;;;;;;5050768;28;20790;-92
2024/01/30 07:07:55;;;;;;;19.83;16.50;;;8.20;99.90;;;;;;5070223;28;20403;-92
2024/01/30 07:10:21;;;;;;;20.75;16.73;;;8.20;99.90;;;;;;5053146;28;20894;-93
2024/01/30 07:12:47;;;;;;;19.92;16.70;;;8.60;99.90;;;;;;5052624;28;20407;-93
2024/01/30 07:15:16;;;;;;;19.63;16.63;;;8.30;99.90;;;;;;5053803;28;20464;-91
2024/01/30 07:17:42;;;;;;;19.08;16.58;;;8.30;99.90;;;;;;5051831;28;20464;-93
2024/01/30 07:20:09;;;;;;;18.93;16.27;;;8.30;99.90;;;;;;5053606;28;20404;-93
2024/01/30 07:22:34;;;;;;;19.30;16.80;;;8.30;99.90;;;;;;5047086;28;20405;-91
2024/01/30 07:25:00;;;;;;;19.30;16.43;;;8.70;99.90;;;;;;5033271;28;20906;-92
2024/01/30 07:27:26;;;;;;;19.27;17.08;;;8.30;99.90;;;;;;5049089;28;21167;-92
2024/01/30 07:29:52;;;;;;;19.48;17.17;;;8.50;99.90;;;;;;5032157;28;20405;-93
2024/01/30 07:32:18;;;;;;;19.10;16.93;;;8.60;99.90;;;;;;5033114;28;20440;-91
2024/01/30 07:34:44;;;;;;;18.10;16.20;;;8.30;99.90;;;;;;5048614;28;20935;-90
2024/01/30 07:37:10;;;;;;;17.38;15.55;;;8.70;99.90;;;;;;5033249;28;20410;-92
2024/01/30 07:39:36;;;;;;;17.10;15.27;;;8.30;99.90;;;;;;5017319;28;20407;-93
2024/01/30 07:42:02;;;;;;;19.25;16.25;;;8.00;99.90;;;;;;5029847;28;20469;-91
2024/01/30 07:44:28;;;;;;;17.95;16.08;;;8.40;99.90;;;;;;5012558;28;20407;-90
2024/01/30 07:46:54;;;;;;;20.30;16.15;;;8.20;99.90;;;;;;5012955;28;20937;-90
2024/01/30 07:49:20;;;;;;;18.33;16.15;;;8.40;99.90;;;;;;5012559;28;20403;-89
2024/01/30 07:51:46;;;;;;;18.88;16.13;;;8.80;99.90;;;;;;5012418;28;20399;-90
2024/01/30 07:54:15;;;;;;;18.77;15.20;;;8.50;99.90;;;;;;5013159;28;20771;-91
2024/01/30 07:56:41;;;;;;;17.88;15.32;;;8.60;99.90;;;;;;5011947;28;20795;-90
2024/01/30 07:59:11;;;;;;;19.00;16.35;;;8.90;99.90;;;;;;5013115;28;21064;-91
2024/01/30 08:01:37;;;;;;;19.70;16.50;;;8.90;99.90;;;;;;5012138;28;20415;-89
2024/01/30 08:04:03;;;;;;;19.27;15.40;;;8.50;99.90;;;;;;5029055;28;20414;-92
2024/01/30 08:06:28;;;;;;;20.02;15.52;;;8.50;99.90;;;;;;5012343;28;20536;-91
2024/01/30 08:08:54;;;;;;;17.83;15.40;;;8.60;99.90;;;;;;5012048;28;20770;-91
2024/01/30 08:11:25;;;;;;;20.08;15.75;;;8.60;99.90;;;;;;5012600;28;20407;-90
2024/01/30 08:13:51;;;;;;;17.27;15.27;;;8.60;99.90;;;;;;5011486;28;20403;-91
2024/01/30 08:16:17;;;;;;;18.70;13.83;;;8.80;99.90;;;;;;5013111;28;20962;-93
2024/01/30 08:18:43;;;;;;;18.47;14.60;;;8.80;99.90;;;;;;5027870;28;20483;-90
2024/01/30 08:21:09;;;;;;;17.13;14.82;;;8.70;99.90;;;;;;5012581;28;20410;-90
2024/01/30 08:23:34;;;;;;;16.25;13.95;;;9.10;99.90;;;;;;5011916;28;20419;-91
2024/01/30 08:26:00;;;;;;;17.03;14.23;;;9.00;99.90;;;;;;5011581;28;21014;-94
2024/01/30 08:28:26;;;;;;;15.47;13.53;;;8.80;99.90;;;;;;5012723;28;20427;-91
2024/01/30 08:30:52;;;;;;;16.52;13.82;;;8.90;99.90;;;;;;5011417;28;20834;-91
2024/01/30 08:33:18;;;;;;;16.83;14.37;;;9.00;99.90;;;;;;5028924;28;20406;-91
2024/01/30 08:35:43;;;;;;;15.63;13.80;;;8.90;99.90;;;;;;5011174;28;20773;-91
2024/01/30 08:38:10;;;;;;;16.77;13.93;;;9.00;99.90;;;;;;5012546;28;20414;-90
2024/01/30 08:40:35;;;;;;;17.30;14.32;;;9.10;99.90;;;;;;5010836;28;20418;-90
2024/01/30 08:43:01;;;;;;;16.75;14.13;;;9.10;99.90;;;;;;5011375;28;20399;-91
2024/01/30 08:45:27;;;;;;;15.50;13.90;;;9.10;99.90;;;;;;5011730;28;20427;-90
2024/01/30 08:47:52;;;;;;;17.10;14.10;;;9.30;99.90;;;;;;5027612;28;20413;-93
2024/01/30 08:50:18;;;;;;;16.25;13.48;;;9.40;99.90;;;;;;5012890;28;20407;-91
2024/01/30 08:52:44;;;;;;;16.15;13.23;;;9.20;99.90;;;;;;5030451;28;20452;-91
2024/01/30 08:55:10;;;;;;;15.80;12.93;;;9.40;99.90;;;;;;5032284;28;20916;-92
2024/01/30 08:57:35;;;;;;;15.88;13.95;;;9.20;99.90;;;;;;5030400;28;20412;-90
2024/01/30 09:00:04;;;;;;;16.10;14.00;;;9.40;99.90;;;;;;5031605;28;20900;-91
2024/01/30 09:02:29;;;;;;;17.17;13.80;;;9.40;99.90;;;;;;5031291;28;20401;-90
2024/01/30 09:04:55;;;;;;;16.23;13.60;;;9.40;99.90;;;;;;5031331;28;20449;-90
2024/01/30 09:07:21;;;;;;;16.92;13.35;;;9.40;99.90;;;;;;5031101;28;20413;-89
2024/01/30 09:09:46;;;;;;;17.60;13.87;;;9.50;99.90;;;;;;5046919;28;20468;-93
2024/01/30 09:12:12;;;;;;;15.82;13.52;;;9.60;99.90;;;;;;5031989;28;20405;-92
2024/01/30 09:14:39;;;;;;;17.63;14.50;;;9.70;99.90;;;;;;5030482;28;20497;-90
2024/01/30 09:17:05;;;;;;;19.13;13.90;;;10.00;99.90;;;;;;5031350;28;20444;-91
2024/01/30 09:19:31;;;;;;;18.23;14.43;;;9.70;99.90;;;;;;5030298;28;20460;-91
2024/01/30 09:21:56;;;;;;;15.88;13.63;;;9.70;99.90;;;;;;5031314;28;20488;-93
2024/01/30 09:24:22;;;;;;;15.15;13.40;;;9.70;99.90;;;;;;5031207;28;20908;-91
2024/01/30 09:26:48;;;;;;;16.90;13.23;;;9.70;99.90;;;;;;5030383;28;20890;-91
2024/01/30 09:29:13;;;;;;;17.50;13.47;;;9.80;99.90;;;;;;5031424;28;20471;-92
2024/01/30 09:31:46;;;;;;;17.40;13.47;;;9.70;99.90;;;;;;5029258;28;20850;-92
2024/01/30 09:34:12;;;;;;;17.13;13.90;;;9.70;99.90;;;;;;5031643;28;20804;-93
2024/01/30 09:36:38;;;;;;;18.25;14.57;;;9.70;99.90;;;;;;5029861;28;20398;-92
2024/01/30 09:39:04;;;;;;;17.92;14.27;;;9.80;99.90;;;;;;5047233;28;20495;-91
2024/01/30 09:41:33;;;;;;;18.10;14.70;;;9.80;99.90;;;;;;5030492;28;20420;-90
2024/01/30 09:43:59;;;;;;;17.98;14.48;;;10.00;99.90;;;;;;5030038;28;20781;-92
2024/01/30 09:46:27;;;;;;;17.58;14.35;;;9.90;99.90;;;;;;5030728;28;20421;-92
2024/01/30 09:48:55;;;;;;;17.73;14.27;;;9.90;99.90;;;;;;5029472;28;20425;-91
2024/01/30 09:51:22;;;;;;;17.95;14.27;;;9.90;99.90;;;;;;5031061;28;20475;-91
2024/01/30 09:53:49;;;;;;;18.45;14.25;;;10.20;99.90;;;;;;5046095;28;20405;-90
2024/01/30 09:56:15;;;;;;;17.15;13.52;;;10.00;99.90;;;;;;5030653;28;20765;-92
2024/01/30 09:58:41;;;;;;;18.85;14.18;;;10.00;99.90;;;;;;5030119;28;20417;-89
2024/01/30 10:01:07;;;;;;;17.98;14.07;;;10.00;99.90;;;;;;5034717;28;20410;-90
2024/01/30 10:03:33;;;;;;;17.90;14.70;;;10.20;99.90;;;;;;5010855;28;20403;-91
2024/01/30 10:06:00;;;;;;;20.07;14.90;;;10.00;99.90;;;;;;5009439;28;20526;-90
2024/01/30 10:08:26;;;;;;;17.80;14.73;;;10.00;99.90;;;;;;5011108;28;20416;-93
2024/01/30 10:10:52;;;;;;;20.00;15.55;;;10.00;99.90;;;;;;5009454;28;20399;-91
2024/01/30 10:13:18;;;;;;;20.63;15.13;;;10.10;99.90;;;;;;5010685;28;20840;-90
2024/01/30 10:15:44;;;;;;;19.60;14.33;;;10.50;99.90;;;;;;5009949;28;20451;-90
2024/01/30 10:18:10;;;;;;;19.17;14.60;;;10.20;99.90;;;;;;5010344;28;20469;-93
2024/01/30 10:20:36;;;;;;;18.40;14.52;;;10.40;99.90;;;;;;5010660;28;20810;-90
2024/01/30 10:23:03;;;;;;;18.25;14.82;;;10.10;99.90;;;;;;5009683;28;20486;-91
2024/01/30 10:25:30;;;;;;;18.83;15.02;;;10.10;99.90;;;;;;5027135;28;20910;-91
2024/01/30 10:27:56;;;;;;;18.67;15.00;;;10.40;99.90;;;;;;5009293;28;20846;-93
2024/01/30 10:30:22;;;;;;;18.97;14.47;;;10.50;99.90;;;;;;5018589;28;20414;-91
2024/01/30 10:32:48;;;;;;;17.17;13.63;;;10.60;99.90;;;;;;5018476;28;20421;-91
2024/01/30 10:35:15;;;;;;;14.90;11.20;;;10.30;99.90;;;;;;5021547;28;20406;-93
2024/01/30 10:37:43;;;;;;;13.73;8.93;;;10.40;99.90;;;;;;5006675;28;20413;-95
2024/01/30 10:40:13;;;;;;;12.00;9.13;;;10.70;99.90;;;;;;5019024;28;20508;-92
2024/01/30 10:42:45;;;;;;;16.38;9.82;;;10.70;99.90;;;;;;5017109;28;20423;-91
2024/01/30 10:45:12;;;;;;;10.98;8.88;;;10.50;99.90;;;;;;5021532;28;20402;-91
2024/01/30 10:47:41;;;;;;;12.47;8.63;;;10.50;99.90;;;;;;5010651;28;20431;-91
2024/01/30 10:50:10;;;;;;;12.93;9.02;;;10.70;99.90;;;;;;5009405;28;20454;-90
2024/01/30 10:52:36;;;;;;;13.40;9.18;;;10.40;99.90;;;;;;5023445;28;20737;-89
2024/01/30 10:55:06;;;;;;;12.77;8.07;;;10.40;99.90;;;;;;5029448;28;20429;-91
2024/01/30 10:57:34;;;;;;;13.05;8.40;;;10.40;99.90;;;;;;5045675;28;20408;-92
2024/01/30 11:00:05;;;;;;;13.03;8.20;;;10.50;99.90;;;;;;5029837;28;20542;-91
2024/01/30 11:02:31;;;;;;;12.30;8.25;;;10.70;99.90;;;;;;5008957;28;20505;-89
2024/01/30 11:04:58;;;;;;;12.73;6.60;;;10.60;99.90;;;;;;5013756;28;20417;-93
2024/01/30 11:07:29;;;;;;;10.95;6.30;;;10.30;99.90;;;;;;5029209;28;21091;-93
2024/01/30 11:10:04;;;;;;;12.25;5.40;;;10.30;99.90;;;;;;5020186;28;20574;-92
2024/01/30 11:12:34;;;;;;;14.18;5.25;;;10.20;99.90;;;;;;5033281;28;20405;-93
2024/01/30 11:15:06;;;;;;;12.80;4.78;;;10.70;99.90;;;;;;5032493;28;20401;-92
2024/01/30 11:17:47;;;;;;;13.10;5.22;;;10.20;99.90;;;;;;5034185;28;20424;-94
2024/01/30 11:20:31;;;;;;;9.90;4.68;;;10.40;99.90;;;;;;5049486;28;20417;-92
2024/01/30 11:22:57;;;;;;;12.77;4.45;;;10.00;99.90;;;;;;5033309;28;20410;-91
2024/01/30 11:25:24;;;;;;;13.35;4.28;;;10.30;99.90;;;;;;5023191;28;20430;-93
2024/01/30 11:27:54;;;;;;;11.07;3.78;;;10.20;99.90;;;;;;5012585;28;20438;-91
2024/01/30 11:30:30;;;;;;;15.07;4.40;;;10.00;99.90;;;;;;5013664;28;20419;-91
2024/01/30 11:33:06;;;;;;;10.43;4.53;;;9.80;99.90;;;;;;5009544;28;20501;-91
2024/01/30 11:35:36;;;;;;;13.00;4.45;;;10.10;99.90;;;;;;5013612;28;20411;-90
2024/01/30 11:38:03;;;;;;;11.75;4.07;;;9.90;99.90;;;;;;5013096;28;20430;-89
2024/01/30 11:40:30;;;;;;;13.45;4.30;;;9.70;99.90;;;;;;5013037;28;20403;-91
2024/01/30 11:42:57;;;;;;;12.32;4.07;;;9.90;99.90;;;;;;5013463;28;20415;-90
2024/01/30 11:45:23;;;;;;;9.93;2.70;;;9.70;99.90;;;;;;5012123;28;20902;-89
2024/01/30 11:47:49;;;;;;;8.88;2.10;;;9.80;99.90;;;;;;5013451;28;20439;-89
2024/01/30 11:50:15;;;;;;;7.90;2.20;;;10.00;99.90;;;;;;5012021;28;20504;-91
2024/01/30 11:52:42;;;;;;;8.35;1.95;;;9.90;99.90;;;;;;5013356;28;20443;-90
2024/01/30 11:55:09;;;;;;;7.47;1.25;;;10.10;99.90;;;;;;5028995;28;20787;-88
2024/01/30 11:57:36;;;;;;;6.20;1.30;;;9.90;99.90;;;;;;5012664;28;20497;-91
2024/01/30 12:00:08;;;;;;;6.33;1.50;;;10.00;99.90;;;;;;5032658;28;20417;-90
2024/01/30 12:02:33;;;;;;;6.30;1.10;;;9.90;99.90;;;;;;5025169;28;20992;-88
2024/01/30 12:05:04;;;;;;;5.40;0.63;;;9.90;99.90;;;;;;5033939;28;20459;-88
2024/01/30 12:07:30;;;;;;;5.30;0.80;;;9.90;99.90;;;;;;5019742;28;20437;-90
2024/01/30 12:09:56;;;;;;;3.77;0.53;;;10.00;99.90;;;;;;5030357;28;20424;-90
2024/01/30 12:12:24;;;;;;;4.40;0.60;;;9.90;99.90;;;;;;5014221;28;20488;-90
2024/01/30 12:14:51;;;;;;;5.68;0.80;;;10.00;99.90;;;;;;5028088;28;20426;-90
2024/01/30 12:17:29;;;;;;;4.43;0.80;;;9.80;99.90;;;;;;5015820;28;20820;-89
2024/01/30 12:20:12;;;;;;;4.90;1.20;;;9.90;99.90;;;;;;5022110;28;20482;-89
2024/01/30 12:22:42;;;;;;;4.68;1.42;;;9.90;99.90;;;;;;5021855;28;20415;-90
2024/01/30 12:25:12;;;;;;;5.35;0.82;;;10.00;99.90;;;;;;5011809;28;20695;-91
2024/01/30 12:27:38;;;;;;;3.90;0.80;;;10.00;99.90;;;;;;5011620;28;20442;-89
2024/01/30 12:30:11;;;;;;;5.80;0.80;;;10.00;99.90;;;;;;5023903;28;20778;-90
2024/01/30 12:32:49;;;;;;;6.45;0.68;;;10.00;99.90;;;;;;5027481;28;20509;-90
2024/01/30 12:35:18;;;;;;;5.65;0.40;;;10.00;99.90;;;;;;5017072;28;20438;-90